sensor_id;sensor_type;location;lat;lon;timestamp;P1;durP1;ratioP1;P2;durP2;ratioP2
11191;SDS011;5652;48.406;10.820;2024-01-27T00:01:07;5.32;;;2.15;;
11191;SDS011;5652;48.406;10.820;2024-01-27T00:03:34;4.68;;;2.03;;
11191;SDS011;5652;48.406;10.820;2024-01-27T00:06:03;5.50;;;2.33;;
11191;SDS011;5652;48.406;10.820;2024-01-27T00:08:30;4.45;;;2.13;;
11191;SDS011;5652;48.406;10.820;2024-01-27T00:10:57;4.90;;;2.30;;
11191;SDS011;5652;48.406;10.820;2024-01-27T00:13:24;4.67;;;2.63;;
11191;SDS011;5652;48.406;10.820;2024-01-27T00:15:51;5.45;;;2.42;;
11191;SDS011;5652;48.406;10.820;2024-01-27T00:18:19;5.90;;;2.85;;
11191;SDS011;5652;48.406;10.820;2024-01-27T00:20:46;5.38;;;3.03;;
11191;SDS011;5652;48.406;10.820;2024-01-27T00:23:15;5.95;;;3.00;;
11191;SDS011;5652;48.406;10.820;2024-01-27T00:25:42;5.40;;;2.78;;
11191;SDS011;5652;48.406;10.820;2024-01-27T00:28:09;6.03;;;2.85;;
11191;SDS011;5652;48.406;10.820;2024-01-27T00:30:36;5.50;;;3.47;;
11191;SDS011;5652;48.406;10.820;2024-01-27T00:33:03;7.60;;;3.22;;
11191;SDS011;5652;48.406;10.820;2024-01-27T00:35:31;7.65;;;3.22;;
11191;SDS011;5652;48.406;10.820;2024-01-27T00:37:58;7.90;;;3.53;;
11191;SDS011;5652;48.406;10.820;2024-01-27T00:40:26;6.45;;;3.10;;
11191;SDS011;5652;48.406;10.820;2024-01-27T00:42:54;7.70;;;3.83;;
11191;SDS011;5652;48.406;10.820;2024-01-27T00:45:21;8.32;;;3.78;;
11191;SDS011;5652;48.406;10.820;2024-01-27T00:47:49;6.60;;;3.90;;
11191;SDS011;5652;48.406;10.820;2024-01-27T00:50:16;9.13;;;3.60;;
11191;SDS011;5652;48.406;10.820;2024-01-27T00:52:43;7.95;;;3.72;;
11191;SDS011;5652;48.406;10.820;2024-01-27T00:55:10;6.05;;;3.50;;
11191;SDS011;5652;48.406;10.820;2024-01-27T00:57:39;7.85;;;3.80;;
11191;SDS011;5652;48.406;10.820;2024-01-27T01:00:06;7.90;;;4.45;;
11191;SDS011;5652;48.406;10.820;2024-01-27T01:02:34;7.45;;;4.35;;
11191;SDS011;5652;48.406;10.820;2024-01-27T01:05:01;7.72;;;4.07;;
11191;SDS011;5652;48.406;10.820;2024-01-27T01:07:29;7.10;;;4.30;;
11191;SDS011;5652;48.406;10.820;2024-01-27T01:09:56;7.03;;;4.40;;
11191;SDS011;5652;48.406;10.820;2024-01-27T01:12:23;7.47;;;4.78;;
11191;SDS011;5652;48.406;10.820;2024-01-27T01:14:52;7.30;;;4.47;;
11191;SDS011;5652;48.406;10.820;2024-01-27T01:17:19;6.47;;;4.40;;
11191;SDS011;5652;48.406;10.820;2024-01-27T01:19:46;8.38;;;4.32;;
11191;SDS011;5652;48.406;10.820;2024-01-27T01:22:13;5.83;;;4.40;;
11191;SDS011;5652;48.406;10.820;2024-01-27T01:24:40;9.00;;;4.78;;
11191;SDS011;5652;48.406;10.820;2024-01-27T01:27:07;8.15;;;5.10;;
11191;SDS011;5652;48.406;10.820;2024-01-27T01:29:35;8.07;;;5.68;;
11191;SDS011;5652;48.406;10.820;2024-01-27T01:32:04;9.68;;;5.55;;
11191;SDS011;5652;48.406;10.820;2024-01-27T01:34:31;7.70;;;5.18;;
11191;SDS011;5652;48.406;10.820;2024-01-27T01:36:59;7.95;;;5.22;;
11191;SDS011;5652;48.406;10.820;2024-01-27T01:39:27;8.73;;;5.50;;
11191;SDS011;5652;48.406;10.820;2024-01-27T01:41:54;8.70;;;5.20;;
11191;SDS011;5652;48.406;10.820;2024-01-27T01:44:21;7.10;;;5.07;;
11191;SDS011;5652;48.406;10.820;2024-01-27T01:46:48;7.38;;;4.68;;
11191;SDS011;5652;48.406;10.820;2024-01-27T01:49:16;7.53;;;4.63;;
11191;SDS011;5652;48.406;10.820;2024-01-27T01:51:44;8.45;;;4.68;;
11191;SDS011;5652;48.406;10.820;2024-01-27T01:54:11;9.45;;;4.88;;
11191;SDS011;5652;48.406;10.820;2024-01-27T01:56:38;8.18;;;4.82;;
11191;SDS011;5652;48.406;10.820;2024-01-27T01:59:05;8.15;;;4.70;;
11191;SDS011;5652;48.406;10.820;2024-01-27T02:01:32;6.07;;;4.50;;
11191;SDS011;5652;48.406;10.820;2024-01-27T02:03:59;7.88;;;4.65;;
11191;SDS011;5652;48.406;10.820;2024-01-27T02:06:27;9.07;;;4.90;;
11191;SDS011;5652;48.406;10.820;2024-01-27T02:08:55;8.50;;;4.60;;
11191;SDS011;5652;48.406;10.820;2024-01-27T02:11:22;6.75;;;4.05;;
11191;SDS011;5652;48.406;10.820;2024-01-27T02:13:49;7.40;;;4.60;;
11191;SDS011;5652;48.406;10.820;2024-01-27T02:16:16;8.35;;;4.60;;
11191;SDS011;5652;48.406;10.820;2024-01-27T02:18:43;7.10;;;4.50;;
11191;SDS011;5652;48.406;10.820;2024-01-27T02:21:10;7.93;;;4.63;;
11191;SDS011;5652;48.406;10.820;2024-01-27T02:23:39;8.27;;;4.57;;
11191;SDS011;5652;48.406;10.820;2024-01-27T02:26:07;9.88;;;4.88;;
11191;SDS011;5652;48.406;10.820;2024-01-27T02:28:35;8.63;;;5.25;;
11191;SDS011;5652;48.406;10.820;2024-01-27T02:31:02;9.70;;;4.90;;
11191;SDS011;5652;48.406;10.820;2024-01-27T02:33:29;8.50;;;5.43;;
11191;SDS011;5652;48.406;10.820;2024-01-27T02:35:56;10.90;;;7.80;;
11191;SDS011;5652;48.406;10.820;2024-01-27T02:38:23;10.68;;;6.95;;
11191;SDS011;5652;48.406;10.820;2024-01-27T02:40:50;11.35;;;6.88;;
11191;SDS011;5652;48.406;10.820;2024-01-27T02:43:19;11.95;;;6.03;;
11191;SDS011;5652;48.406;10.820;2024-01-27T02:45:46;11.60;;;6.78;;
11191;SDS011;5652;48.406;10.820;2024-01-27T02:48:13;10.00;;;6.28;;
11191;SDS011;5652;48.406;10.820;2024-01-27T02:50:40;10.05;;;6.25;;
11191;SDS011;5652;48.406;10.820;2024-01-27T02:53:07;9.20;;;5.85;;
11191;SDS011;5652;48.406;10.820;2024-01-27T02:55:34;9.50;;;6.40;;
11191;SDS011;5652;48.406;10.820;2024-01-27T02:58:01;9.32;;;6.45;;
11191;SDS011;5652;48.406;10.820;2024-01-27T03:00:29;12.17;;;6.70;;
11191;SDS011;5652;48.406;10.820;2024-01-27T03:02:56;10.93;;;7.18;;
11191;SDS011;5652;48.406;10.820;2024-01-27T03:05:24;10.35;;;6.45;;
11191;SDS011;5652;48.406;10.820;2024-01-27T03:07:51;9.65;;;6.70;;
11191;SDS011;5652;48.406;10.820;2024-01-27T03:10:18;9.80;;;6.82;;
11191;SDS011;5652;48.406;10.820;2024-01-27T03:12:46;9.15;;;6.35;;
11191;SDS011;5652;48.406;10.820;2024-01-27T03:15:13;12.45;;;6.60;;
11191;SDS011;5652;48.406;10.820;2024-01-27T03:17:41;15.32;;;6.20;;
11191;SDS011;5652;48.406;10.820;2024-01-27T03:20:09;8.98;;;6.10;;
11191;SDS011;5652;48.406;10.820;2024-01-27T03:22:37;8.32;;;5.88;;
11191;SDS011;5652;48.406;10.820;2024-01-27T03:25:06;9.93;;;6.03;;
11191;SDS011;5652;48.406;10.820;2024-01-27T03:27:35;9.90;;;6.20;;
11191;SDS011;5652;48.406;10.820;2024-01-27T03:30:03;10.97;;;6.40;;
11191;SDS011;5652;48.406;10.820;2024-01-27T03:32:30;8.43;;;6.20;;
11191;SDS011;5652;48.406;10.820;2024-01-27T03:34:59;10.32;;;6.38;;
11191;SDS011;5652;48.406;10.820;2024-01-27T03:37:26;10.45;;;6.28;;
11191;SDS011;5652;48.406;10.820;2024-01-27T03:39:53;11.93;;;6.93;;
11191;SDS011;5652;48.406;10.820;2024-01-27T03:42:21;11.43;;;6.80;;
11191;SDS011;5652;48.406;10.820;2024-01-27T03:44:49;9.53;;;6.47;;
11191;SDS011;5652;48.406;10.820;2024-01-27T03:47:16;13.98;;;7.43;;
11191;SDS011;5652;48.406;10.820;2024-01-27T03:49:44;10.27;;;6.93;;
11191;SDS011;5652;48.406;10.820;2024-01-27T03:52:12;10.52;;;6.70;;
11191;SDS011;5652;48.406;10.820;2024-01-27T03:54:39;10.73;;;6.22;;
11191;SDS011;5652;48.406;10.820;2024-01-27T03:57:06;11.93;;;6.50;;
11191;SDS011;5652;48.406;10.820;2024-01-27T03:59:33;12.57;;;6.97;;
11191;SDS011;5652;48.406;10.820;2024-01-27T04:02:01;14.00;;;7.87;;
11191;SDS011;5652;48.406;10.820;2024-01-27T04:04:28;11.63;;;7.20;;
11191;SDS011;5652;48.406;10.820;2024-01-27T04:06:55;11.10;;;7.67;;
11191;SDS011;5652;48.406;10.820;2024-01-27T04:09:23;10.85;;;7.10;;
11191;SDS011;5652;48.406;10.820;2024-01-27T04:11:50;11.32;;;6.97;;
11191;SDS011;5652;48.406;10.820;2024-01-27T04:14:17;12.98;;;7.85;;
11191;SDS011;5652;48.406;10.820;2024-01-27T04:16:44;11.38;;;7.10;;
11191;SDS011;5652;48.406;10.820;2024-01-27T04:19:12;15.05;;;7.55;;
11191;SDS011;5652;48.406;10.820;2024-01-27T04:21:39;12.38;;;7.60;;
11191;SDS011;5652;48.406;10.820;2024-01-27T04:24:07;12.73;;;7.53;;
11191;SDS011;5652;48.406;10.820;2024-01-27T04:26:35;10.73;;;7.38;;
11191;SDS011;5652;48.406;10.820;2024-01-27T04:29:03;11.97;;;7.93;;
11191;SDS011;5652;48.406;10.820;2024-01-27T04:31:30;10.80;;;7.82;;
11191;SDS011;5652;48.406;10.820;2024-01-27T04:33:57;11.95;;;7.88;;
11191;SDS011;5652;48.406;10.820;2024-01-27T04:36:25;13.18;;;8.25;;
11191;SDS011;5652;48.406;10.820;2024-01-27T04:38:52;15.73;;;8.18;;
11191;SDS011;5652;48.406;10.820;2024-01-27T04:41:19;12.57;;;7.90;;
11191;SDS011;5652;48.406;10.820;2024-01-27T04:43:48;17.55;;;9.98;;
11191;SDS011;5652;48.406;10.820;2024-01-27T04:46:16;13.85;;;8.32;;
11191;SDS011;5652;48.406;10.820;2024-01-27T04:48:43;11.75;;;7.32;;
11191;SDS011;5652;48.406;10.820;2024-01-27T04:51:10;12.27;;;7.43;;
11191;SDS011;5652;48.406;10.820;2024-01-27T04:53:37;15.15;;;7.90;;
11191;SDS011;5652;48.406;10.820;2024-01-27T04:56:04;13.90;;;7.80;;
11191;SDS011;5652;48.406;10.820;2024-01-27T04:58:33;12.93;;;8.20;;
11191;SDS011;5652;48.406;10.820;2024-01-27T05:01:01;13.77;;;7.97;;
11191;SDS011;5652;48.406;10.820;2024-01-27T05:03:28;11.50;;;7.45;;
11191;SDS011;5652;48.406;10.820;2024-01-27T05:05:56;13.85;;;8.00;;
11191;SDS011;5652;48.406;10.820;2024-01-27T05:08:23;14.50;;;7.53;;
11191;SDS011;5652;48.406;10.820;2024-01-27T05:10:50;14.05;;;7.88;;
11191;SDS011;5652;48.406;10.820;2024-01-27T05:13:17;10.88;;;7.22;;
11191;SDS011;5652;48.406;10.820;2024-01-27T05:15:44;13.57;;;7.90;;
11191;SDS011;5652;48.406;10.820;2024-01-27T05:18:13;11.13;;;7.35;;
11191;SDS011;5652;48.406;10.820;2024-01-27T05:20:40;12.10;;;7.53;;
11191;SDS011;5652;48.406;10.820;2024-01-27T05:23:07;14.18;;;7.95;;
11191;SDS011;5652;48.406;10.820;2024-01-27T05:25:34;14.77;;;8.82;;
11191;SDS011;5652;48.406;10.820;2024-01-27T05:28:01;12.90;;;8.68;;
11191;SDS011;5652;48.406;10.820;2024-01-27T05:30:28;12.95;;;9.75;;
11191;SDS011;5652;48.406;10.820;2024-01-27T05:32:55;13.15;;;9.02;;
11191;SDS011;5652;48.406;10.820;2024-01-27T05:35:24;15.30;;;8.88;;
11191;SDS011;5652;48.406;10.820;2024-01-27T05:37:51;15.18;;;8.52;;
11191;SDS011;5652;48.406;10.820;2024-01-27T05:40:19;15.68;;;8.43;;
11191;SDS011;5652;48.406;10.820;2024-01-27T05:42:46;15.10;;;9.10;;
11191;SDS011;5652;48.406;10.820;2024-01-27T05:45:14;14.65;;;8.52;;
11191;SDS011;5652;48.406;10.820;2024-01-27T05:47:41;13.20;;;8.48;;
11191;SDS011;5652;48.406;10.820;2024-01-27T05:50:08;12.83;;;8.73;;
11191;SDS011;5652;48.406;10.820;2024-01-27T05:52:37;13.57;;;8.30;;
11191;SDS011;5652;48.406;10.820;2024-01-27T05:55:04;14.02;;;8.73;;
11191;SDS011;5652;48.406;10.820;2024-01-27T05:57:31;13.57;;;8.45;;
11191;SDS011;5652;48.406;10.820;2024-01-27T05:59:59;16.23;;;9.10;;
11191;SDS011;5652;48.406;10.820;2024-01-27T06:02:26;15.70;;;8.70;;
11191;SDS011;5652;48.406;10.820;2024-01-27T06:04:53;15.23;;;9.02;;
11191;SDS011;5652;48.406;10.820;2024-01-27T06:07:20;14.55;;;9.05;;
11191;SDS011;5652;48.406;10.820;2024-01-27T06:09:48;16.33;;;9.15;;
11191;SDS011;5652;48.406;10.820;2024-01-27T06:12:16;16.55;;;8.95;;
11191;SDS011;5652;48.406;10.820;2024-01-27T06:14:44;18.08;;;12.20;;
11191;SDS011;5652;48.406;10.820;2024-01-27T06:17:11;18.65;;;13.10;;
11191;SDS011;5652;48.406;10.820;2024-01-27T06:19:40;18.00;;;11.52;;
11191;SDS011;5652;48.406;10.820;2024-01-27T06:22:07;19.13;;;11.77;;
11191;SDS011;5652;48.406;10.820;2024-01-27T06:24:34;16.52;;;10.30;;
11191;SDS011;5652;48.406;10.820;2024-01-27T06:27:02;13.82;;;9.70;;
11191;SDS011;5652;48.406;10.820;2024-01-27T06:29:29;18.10;;;10.98;;
11191;SDS011;5652;48.406;10.820;2024-01-27T06:31:56;16.45;;;9.70;;
11191;SDS011;5652;48.406;10.820;2024-01-27T06:34:24;15.90;;;9.60;;
11191;SDS011;5652;48.406;10.820;2024-01-27T06:36:51;14.80;;;8.80;;
11191;SDS011;5652;48.406;10.820;2024-01-27T06:39:18;15.45;;;9.20;;
11191;SDS011;5652;48.406;10.820;2024-01-27T06:41:53;18.00;;;8.63;;
11191;SDS011;5652;48.406;10.820;2024-01-27T06:44:22;15.75;;;9.20;;
11191;SDS011;5652;48.406;10.820;2024-01-27T06:46:49;15.98;;;9.35;;
11191;SDS011;5652;48.406;10.820;2024-01-27T06:49:16;18.98;;;12.10;;
11191;SDS011;5652;48.406;10.820;2024-01-27T06:51:44;17.07;;;11.03;;
11191;SDS011;5652;48.406;10.820;2024-01-27T06:54:11;16.50;;;9.65;;
11191;SDS011;5652;48.406;10.820;2024-01-27T06:56:39;18.33;;;10.83;;
11191;SDS011;5652;48.406;10.820;2024-01-27T06:59:06;17.58;;;10.10;;
11191;SDS011;5652;48.406;10.820;2024-01-27T07:01:34;17.75;;;10.00;;
11191;SDS011;5652;48.406;10.820;2024-01-27T07:04:01;17.87;;;10.40;;
11191;SDS011;5652;48.406;10.820;2024-01-27T07:06:28;20.02;;;11.05;;
11191;SDS011;5652;48.406;10.820;2024-01-27T07:08:55;16.13;;;11.07;;
11191;SDS011;5652;48.406;10.820;2024-01-27T07:11:22;20.92;;;11.48;;
11191;SDS011;5652;48.406;10.820;2024-01-27T07:13:49;22.65;;;13.25;;
11191;SDS011;5652;48.406;10.820;2024-01-27T07:16:16;21.83;;;13.20;;
11191;SDS011;5652;48.406;10.820;2024-01-27T07:18:46;16.48;;;11.35;;
11191;SDS011;5652;48.406;10.820;2024-01-27T07:21:14;21.65;;;12.52;;
11191;SDS011;5652;48.406;10.820;2024-01-27T07:23:42;20.02;;;13.55;;
11191;SDS011;5652;48.406;10.820;2024-01-27T07:26:09;19.10;;;13.00;;
11191;SDS011;5652;48.406;10.820;2024-01-27T07:28:37;22.90;;;15.38;;
11191;SDS011;5652;48.406;10.820;2024-01-27T07:31:04;19.67;;;12.68;;
11191;SDS011;5652;48.406;10.820;2024-01-27T07:33:31;18.58;;;12.52;;
11191;SDS011;5652;48.406;10.820;2024-01-27T07:36:00;19.88;;;12.48;;
11191;SDS011;5652;48.406;10.820;2024-01-27T07:38:27;22.40;;;14.30;;
11191;SDS011;5652;48.406;10.820;2024-01-27T07:40:54;16.95;;;10.77;;
11191;SDS011;5652;48.406;10.820;2024-01-27T07:43:21;16.75;;;11.23;;
11191;SDS011;5652;48.406;10.820;2024-01-27T07:45:48;19.17;;;12.27;;
11191;SDS011;5652;48.406;10.820;2024-01-27T07:48:17;18.00;;;12.80;;
11191;SDS011;5652;48.406;10.820;2024-01-27T07:50:44;19.60;;;12.70;;
11191;SDS011;5652;48.406;10.820;2024-01-27T07:53:15;17.75;;;13.13;;
11191;SDS011;5652;48.406;10.820;2024-01-27T07:55:42;21.65;;;15.15;;
11191;SDS011;5652;48.406;10.820;2024-01-27T07:58:09;23.25;;;14.32;;
11191;SDS011;5652;48.406;10.820;2024-01-27T08:00:36;18.05;;;12.55;;
11191;SDS011;5652;48.406;10.820;2024-01-27T08:03:04;18.05;;;12.15;;
11191;SDS011;5652;48.406;10.820;2024-01-27T08:05:31;15.80;;;11.32;;
11191;SDS011;5652;48.406;10.820;2024-01-27T08:07:58;16.60;;;10.80;;
11191;SDS011;5652;48.406;10.820;2024-01-27T08:10:26;16.45;;;11.20;;
11191;SDS011;5652;48.406;10.820;2024-01-27T08:12:53;13.80;;;9.10;;
11191;SDS011;5652;48.406;10.820;2024-01-27T08:15:20;11.25;;;7.38;;
11191;SDS011;5652;48.406;10.820;2024-01-27T08:17:48;10.52;;;5.90;;
11191;SDS011;5652;48.406;10.820;2024-01-27T08:20:15;9.73;;;5.72;;
11191;SDS011;5652;48.406;10.820;2024-01-27T08:22:42;8.25;;;5.47;;
11191;SDS011;5652;48.406;10.820;2024-01-27T08:25:09;8.60;;;5.70;;
11191;SDS011;5652;48.406;10.820;2024-01-27T08:27:37;8.77;;;6.28;;
11191;SDS011;5652;48.406;10.820;2024-01-27T08:30:05;10.32;;;6.05;;
11191;SDS011;5652;48.406;10.820;2024-01-27T08:32:32;9.70;;;5.93;;
11191;SDS011;5652;48.406;10.820;2024-01-27T08:34:59;7.27;;;4.97;;
11191;SDS011;5652;48.406;10.820;2024-01-27T08:37:26;8.35;;;5.63;;
11191;SDS011;5652;48.406;10.820;2024-01-27T08:39:54;7.88;;;4.97;;
11191;SDS011;5652;48.406;10.820;2024-01-27T08:42:21;7.75;;;5.05;;
11191;SDS011;5652;48.406;10.820;2024-01-27T08:44:50;6.35;;;4.75;;
11191;SDS011;5652;48.406;10.820;2024-01-27T08:47:17;7.63;;;4.57;;
11191;SDS011;5652;48.406;10.820;2024-01-27T08:49:44;7.40;;;4.50;;
11191;SDS011;5652;48.406;10.820;2024-01-27T08:52:11;6.68;;;4.30;;
11191;SDS011;5652;48.406;10.820;2024-01-27T08:54:38;6.55;;;4.35;;
11191;SDS011;5652;48.406;10.820;2024-01-27T08:57:06;6.78;;;4.40;;
11191;SDS011;5652;48.406;10.820;2024-01-27T08:59:33;6.63;;;4.47;;
11191;SDS011;5652;48.406;10.820;2024-01-27T09:02:02;6.17;;;4.37;;
11191;SDS011;5652;48.406;10.820;2024-01-27T09:04:30;6.88;;;3.90;;
11191;SDS011;5652;48.406;10.820;2024-01-27T09:06:57;6.95;;;3.90;;
11191;SDS011;5652;48.406;10.820;2024-01-27T09:09:24;6.07;;;4.00;;
11191;SDS011;5652;48.406;10.820;2024-01-27T09:11:51;7.03;;;4.35;;
11191;SDS011;5652;48.406;10.820;2024-01-27T09:14:18;5.60;;;3.77;;
11191;SDS011;5652;48.406;10.820;2024-01-27T09:16:45;7.30;;;3.83;;
11191;SDS011;5652;48.406;10.820;2024-01-27T09:19:14;5.97;;;3.65;;
11191;SDS011;5652;48.406;10.820;2024-01-27T09:21:41;4.95;;;3.42;;
11191;SDS011;5652;48.406;10.820;2024-01-27T09:24:08;7.40;;;4.07;;
11191;SDS011;5652;48.406;10.820;2024-01-27T09:26:35;5.88;;;3.60;;
11191;SDS011;5652;48.406;10.820;2024-01-27T09:29:02;4.67;;;3.40;;
11191;SDS011;5652;48.406;10.820;2024-01-27T09:31:29;7.47;;;4.45;;
11191;SDS011;5652;48.406;10.820;2024-01-27T09:33:56;6.50;;;3.92;;
11191;SDS011;5652;48.406;10.820;2024-01-27T09:36:25;5.80;;;3.60;;
11191;SDS011;5652;48.406;10.820;2024-01-27T09:38:52;6.03;;;4.20;;
11191;SDS011;5652;48.406;10.820;2024-01-27T09:41:19;7.32;;;4.72;;
11191;SDS011;5652;48.406;10.820;2024-01-27T09:43:47;8.02;;;4.60;;
11191;SDS011;5652;48.406;10.820;2024-01-27T09:46:14;7.87;;;3.90;;
11191;SDS011;5652;48.406;10.820;2024-01-27T09:48:41;6.38;;;3.80;;
11191;SDS011;5652;48.406;10.820;2024-01-27T09:51:09;5.70;;;3.28;;
11191;SDS011;5652;48.406;10.820;2024-01-27T09:53:38;5.10;;;3.28;;
11191;SDS011;5652;48.406;10.820;2024-01-27T09:56:05;5.85;;;2.83;;
11191;SDS011;5652;48.406;10.820;2024-01-27T09:58:36;5.43;;;2.73;;
11191;SDS011;5652;48.406;10.820;2024-01-27T10:01:03;5.25;;;2.83;;
11191;SDS011;5652;48.406;10.820;2024-01-27T10:03:31;6.15;;;3.05;;
11191;SDS011;5652;48.406;10.820;2024-01-27T10:05:58;4.75;;;2.58;;
11191;SDS011;5652;48.406;10.820;2024-01-27T10:08:27;7.75;;;3.22;;
11191;SDS011;5652;48.406;10.820;2024-01-27T10:10:55;6.22;;;2.42;;
11191;SDS011;5652;48.406;10.820;2024-01-27T10:13:23;5.72;;;2.53;;
11191;SDS011;5652;48.406;10.820;2024-01-27T10:15:59;6.40;;;3.05;;
11191;SDS011;5652;48.406;10.820;2024-01-27T10:18:27;5.43;;;2.30;;
11191;SDS011;5652;48.406;10.820;2024-01-27T10:20:54;5.45;;;2.67;;
11191;SDS011;5652;48.406;10.820;2024-01-27T10:23:21;6.13;;;2.60;;
11191;SDS011;5652;48.406;10.820;2024-01-27T10:25:49;6.07;;;2.70;;
11191;SDS011;5652;48.406;10.820;2024-01-27T10:28:17;5.07;;;2.63;;
11191;SDS011;5652;48.406;10.820;2024-01-27T10:30:44;5.47;;;2.65;;
11191;SDS011;5652;48.406;10.820;2024-01-27T10:33:13;6.60;;;2.47;;
11191;SDS011;5652;48.406;10.820;2024-01-27T10:35:40;5.00;;;2.85;;
11191;SDS011;5652;48.406;10.820;2024-01-27T10:38:07;5.93;;;2.80;;
11191;SDS011;5652;48.406;10.820;2024-01-27T10:40:35;5.97;;;2.63;;
11191;SDS011;5652;48.406;10.820;2024-01-27T10:43:03;4.97;;;2.55;;
11191;SDS011;5652;48.406;10.820;2024-01-27T10:45:38;7.53;;;3.08;;
11191;SDS011;5652;48.406;10.820;2024-01-27T10:48:06;5.50;;;2.55;;
11191;SDS011;5652;48.406;10.820;2024-01-27T10:50:35;5.85;;;2.40;;
11191;SDS011;5652;48.406;10.820;2024-01-27T10:53:03;6.20;;;2.60;;
11191;SDS011;5652;48.406;10.820;2024-01-27T10:55:31;6.97;;;2.78;;
11191;SDS011;5652;48.406;10.820;2024-01-27T10:58:00;5.27;;;2.70;;
11191;SDS011;5652;48.406;10.820;2024-01-27T11:00:28;5.82;;;2.55;;
11191;SDS011;5652;48.406;10.820;2024-01-27T11:02:58;6.75;;;2.65;;
11191;SDS011;5652;48.406;10.820;2024-01-27T11:05:27;5.68;;;2.70;;
11191;SDS011;5652;48.406;10.820;2024-01-27T11:07:55;6.07;;;2.65;;
11191;SDS011;5652;48.406;10.820;2024-01-27T11:10:22;5.97;;;2.47;;
11191;SDS011;5652;48.406;10.820;2024-01-27T11:12:50;6.53;;;2.77;;
11191;SDS011;5652;48.406;10.820;2024-01-27T11:15:20;7.60;;;2.53;;
11191;SDS011;5652;48.406;10.820;2024-01-27T11:17:47;5.85;;;2.60;;
11191;SDS011;5652;48.406;10.820;2024-01-27T11:20:15;5.97;;;2.83;;
11191;SDS011;5652;48.406;10.820;2024-01-27T11:22:42;5.22;;;2.28;;
11191;SDS011;5652;48.406;10.820;2024-01-27T11:25:18;6.95;;;2.53;;
11191;SDS011;5652;48.406;10.820;2024-01-27T11:27:46;6.05;;;2.83;;
11191;SDS011;5652;48.406;10.820;2024-01-27T11:30:26;4.40;;;2.47;;
11191;SDS011;5652;48.406;10.820;2024-01-27T11:32:54;7.30;;;2.70;;
11191;SDS011;5652;48.406;10.820;2024-01-27T11:35:22;5.82;;;2.72;;
11191;SDS011;5652;48.406;10.820;2024-01-27T11:37:50;6.05;;;2.60;;
11191;SDS011;5652;48.406;10.820;2024-01-27T11:40:17;6.32;;;2.78;;
11191;SDS011;5652;48.406;10.820;2024-01-27T11:42:53;5.63;;;2.75;;
11191;SDS011;5652;48.406;10.820;2024-01-27T11:45:20;7.43;;;2.90;;
11191;SDS011;5652;48.406;10.820;2024-01-27T11:47:47;5.97;;;2.83;;
11191;SDS011;5652;48.406;10.820;2024-01-27T11:50:14;7.00;;;2.67;;
11191;SDS011;5652;48.406;10.820;2024-01-27T11:52:46;5.15;;;2.55;;
11191;SDS011;5652;48.406;10.820;2024-01-27T11:55:13;5.75;;;2.50;;
11191;SDS011;5652;48.406;10.820;2024-01-27T11:57:41;7.90;;;2.83;;
11191;SDS011;5652;48.406;10.820;2024-01-27T12:00:08;5.70;;;2.53;;
11191;SDS011;5652;48.406;10.820;2024-01-27T12:02:35;5.97;;;2.55;;
11191;SDS011;5652;48.406;10.820;2024-01-27T12:05:03;6.40;;;2.97;;
11191;SDS011;5652;48.406;10.820;2024-01-27T12:07:30;6.03;;;2.80;;
11191;SDS011;5652;48.406;10.820;2024-01-27T12:09:59;9.65;;;2.65;;
11191;SDS011;5652;48.406;10.820;2024-01-27T12:12:26;6.53;;;2.78;;
11191;SDS011;5652;48.406;10.820;2024-01-27T12:14:53;7.20;;;2.67;;
11191;SDS011;5652;48.406;10.820;2024-01-27T12:17:21;7.72;;;2.97;;
11191;SDS011;5652;48.406;10.820;2024-01-27T12:19:49;6.43;;;2.70;;
11191;SDS011;5652;48.406;10.820;2024-01-27T12:22:20;6.00;;;2.92;;
11191;SDS011;5652;48.406;10.820;2024-01-27T12:24:47;5.53;;;2.63;;
11191;SDS011;5652;48.406;10.820;2024-01-27T12:27:15;7.05;;;2.88;;
11191;SDS011;5652;48.406;10.820;2024-01-27T12:29:42;5.90;;;2.55;;
11191;SDS011;5652;48.406;10.820;2024-01-27T12:32:10;5.32;;;2.60;;
11191;SDS011;5652;48.406;10.820;2024-01-27T12:34:39;7.45;;;2.47;;
11191;SDS011;5652;48.406;10.820;2024-01-27T12:37:07;5.20;;;2.55;;
11191;SDS011;5652;48.406;10.820;2024-01-27T12:39:34;5.78;;;2.60;;
11191;SDS011;5652;48.406;10.820;2024-01-27T12:42:01;6.40;;;2.60;;
11191;SDS011;5652;48.406;10.820;2024-01-27T12:44:30;5.53;;;2.58;;
11191;SDS011;5652;48.406;10.820;2024-01-27T12:46:57;5.70;;;2.53;;
11191;SDS011;5652;48.406;10.820;2024-01-27T12:49:24;4.87;;;2.20;;
11191;SDS011;5652;48.406;10.820;2024-01-27T12:51:51;6.78;;;2.70;;
11191;SDS011;5652;48.406;10.820;2024-01-27T12:54:18;7.80;;;2.92;;
11191;SDS011;5652;48.406;10.820;2024-01-27T12:56:45;6.70;;;2.60;;
11191;SDS011;5652;48.406;10.820;2024-01-27T12:59:12;5.78;;;2.90;;
11191;SDS011;5652;48.406;10.820;2024-01-27T13:01:41;7.45;;;2.72;;
11191;SDS011;5652;48.406;10.820;2024-01-27T13:04:08;4.80;;;2.57;;
11191;SDS011;5652;48.406;10.820;2024-01-27T13:06:35;7.10;;;2.50;;
11191;SDS011;5652;48.406;10.820;2024-01-27T13:09:03;8.90;;;2.38;;
11191;SDS011;5652;48.406;10.820;2024-01-27T13:11:30;4.40;;;2.30;;
11191;SDS011;5652;48.406;10.820;2024-01-27T13:13:58;6.53;;;2.72;;
11191;SDS011;5652;48.406;10.820;2024-01-27T13:16:25;5.45;;;2.47;;
11191;SDS011;5652;48.406;10.820;2024-01-27T13:18:53;5.55;;;2.50;;
11191;SDS011;5652;48.406;10.820;2024-01-27T13:21:20;5.18;;;2.33;;
11191;SDS011;5652;48.406;10.820;2024-01-27T13:23:48;5.00;;;2.30;;
11191;SDS011;5652;48.406;10.820;2024-01-27T13:26:17;6.00;;;2.40;;
11191;SDS011;5652;48.406;10.820;2024-01-27T13:28:44;4.90;;;2.28;;
11191;SDS011;5652;48.406;10.820;2024-01-27T13:31:13;4.72;;;2.20;;
11191;SDS011;5652;48.406;10.820;2024-01-27T13:33:41;4.63;;;2.10;;
11191;SDS011;5652;48.406;10.820;2024-01-27T13:36:09;6.53;;;2.45;;
11191;SDS011;5652;48.406;10.820;2024-01-27T13:38:36;6.80;;;2.33;;
11191;SDS011;5652;48.406;10.820;2024-01-27T13:41:03;4.15;;;2.20;;
11191;SDS011;5652;48.406;10.820;2024-01-27T13:43:30;6.10;;;2.27;;
11191;SDS011;5652;48.406;10.820;2024-01-27T13:45:58;5.80;;;2.70;;
11191;SDS011;5652;48.406;10.820;2024-01-27T13:48:25;6.10;;;3.05;;
11191;SDS011;5652;48.406;10.820;2024-01-27T13:50:52;3.88;;;2.03;;
11191;SDS011;5652;48.406;10.820;2024-01-27T13:53:20;4.40;;;2.25;;
11191;SDS011;5652;48.406;10.820;2024-01-27T13:55:48;5.32;;;2.40;;
11191;SDS011;5652;48.406;10.820;2024-01-27T13:58:15;5.18;;;2.15;;
11191;SDS011;5652;48.406;10.820;2024-01-27T14:00:42;5.32;;;2.05;;
11191;SDS011;5652;48.406;10.820;2024-01-27T14:03:10;6.82;;;2.45;;
11191;SDS011;5652;48.406;10.820;2024-01-27T14:05:37;6.97;;;2.53;;
11191;SDS011;5652;48.406;10.820;2024-01-27T14:08:04;4.50;;;2.40;;
11191;SDS011;5652;48.406;10.820;2024-01-27T14:10:34;7.65;;;3.22;;
11191;SDS011;5652;48.406;10.820;2024-01-27T14:13:02;8.63;;;2.80;;
11191;SDS011;5652;48.406;10.820;2024-01-27T14:15:33;9.68;;;5.20;;
11191;SDS011;5652;48.406;10.820;2024-01-27T14:18:01;7.70;;;3.70;;
11191;SDS011;5652;48.406;10.820;2024-01-27T14:20:29;8.45;;;4.97;;
11191;SDS011;5652;48.406;10.820;2024-01-27T14:22:58;11.02;;;6.38;;
11191;SDS011;5652;48.406;10.820;2024-01-27T14:25:25;8.45;;;3.40;;
11191;SDS011;5652;48.406;10.820;2024-01-27T14:27:54;8.40;;;4.85;;
11191;SDS011;5652;48.406;10.820;2024-01-27T14:30:21;9.27;;;3.08;;
11191;SDS011;5652;48.406;10.820;2024-01-27T14:32:49;5.75;;;3.00;;
11191;SDS011;5652;48.406;10.820;2024-01-27T14:35:16;5.95;;;2.83;;
11191;SDS011;5652;48.406;10.820;2024-01-27T14:37:43;5.50;;;2.83;;
11191;SDS011;5652;48.406;10.820;2024-01-27T14:40:10;8.52;;;3.92;;
11191;SDS011;5652;48.406;10.820;2024-01-27T14:42:38;6.93;;;3.40;;